ENSL

Sleipner A Platform Heliport

Norway
METAR ENSL 191250Z 16047KT 7000 -RA BKN012 14/12 Q0990 W11/S4
Observed Flight Rules
Sep-19 @ 12:50 UTC (22 minutes ago) Marginal Visual Flight Rules
Wind Visibility Clouds Conditions
160° at 47 knots 7,001 meters
  • Broken at 1,200' AGL
  • Light Rain
Temperatures Readings
Current 14°C / 57°F
Dewpoint 12°C / 54°F
Humidity 88%
Altimeter 29.23" Hg
Pressure 990 hPa
Elevation 50
METAR ENSL 191250Z 16047KT 7000 -RA BKN012 14/12 Q0990 W11/S4
Observed Flight Rules
Sep-19 @ 12:50 UTC
(22 minutes ago)
MVFR
Wind Visibility
160° at 47 knots 7,001 meters
Clouds
  • Broken at 1,200' AGL
Conditions
  • Light Rain
Temperature Dewpoint
14°C / 57°F 12°C / 54°F
Humidity Altimeter Pressure
88% 29.23" Hg 990 hPa